createdAt,value
2022-10-21T00:01:12.459Z,96318.94
2022-10-21T00:03:41.055Z,96321.50
2022-10-21T00:06:10.084Z,96317.88
2022-10-21T00:08:39.440Z,96308.97
2022-10-21T00:11:10.008Z,96313.75
2022-10-21T00:13:39.895Z,96315.44
2022-10-21T00:16:11.164Z,96305.03
2022-10-21T00:18:43.189Z,96308.94
2022-10-21T00:21:14.790Z,96302.84
2022-10-21T00:23:43.676Z,96305.13
2022-10-21T00:26:12.849Z,96298.09
2022-10-21T00:28:41.727Z,96300.13
2022-10-21T00:31:12.051Z,96292.94
2022-10-21T00:33:42.269Z,96288.81
2022-10-21T00:36:15.055Z,96287.38
2022-10-21T00:38:44.444Z,96273.44
2022-10-21T00:41:13.860Z,96260.34
2022-10-21T00:43:56.851Z,96246.44
2022-10-21T00:46:34.145Z,96240.13
2022-10-21T00:49:08.451Z,96239.91
2022-10-21T00:51:37.561Z,96241.34
2022-10-21T00:54:07.107Z,96234.00
2022-10-21T00:56:37.401Z,96224.56
2022-10-21T00:59:07.523Z,96236.03
2022-10-21T01:01:35.911Z,96238.06
2022-10-21T01:04:06.155Z,96222.91
2022-10-21T01:06:35.875Z,96204.28
2022-10-21T01:09:06.527Z,96214.31
2022-10-21T01:11:41.091Z,96214.13
2022-10-21T01:14:33.987Z,96208.78
2022-10-21T01:17:20.604Z,96206.13
2022-10-21T01:20:21.791Z,96196.91
2022-10-21T01:23:13.153Z,96197.34
2022-10-21T01:26:10.429Z,96184.03
2022-10-21T01:28:50.891Z,96184.63
2022-10-21T01:31:24.293Z,96178.25
2022-10-21T01:34:00.986Z,96177.25
2022-10-21T01:36:34.457Z,96172.56
2022-10-21T01:39:14.933Z,96177.06
2022-10-21T01:41:49.543Z,96175.03
2022-10-21T01:44:24.903Z,96174.41
2022-10-21T01:46:58.977Z,96162.56
2022-10-21T01:49:32.715Z,96161.34
2022-10-21T01:52:03.424Z,96167.09
2022-10-21T01:54:35.423Z,96165.22
2022-10-21T01:57:05.724Z,96166.25
2022-10-21T01:59:35.511Z,96159.28
2022-10-21T02:02:08.888Z,96158.47
2022-10-21T02:04:39.881Z,96148.81
2022-10-21T02:07:08.431Z,96153.53
2022-10-21T02:09:37.433Z,96151.06
2022-10-21T02:12:07.615Z,96146.59
2022-10-21T02:14:39.869Z,96141.66
2022-10-21T02:17:12.423Z,96141.66
2022-10-21T02:19:41.019Z,96133.22
2022-10-21T02:22:14.291Z,96129.13
2022-10-21T02:24:48.467Z,96130.75
2022-10-21T02:27:17.048Z,96140.16
2022-10-21T02:29:47.110Z,96142.00
2022-10-21T02:32:27.852Z,96141.16
2022-10-21T02:35:15.576Z,96138.69
2022-10-21T02:37:50.780Z,96150.78
2022-10-21T02:40:23.949Z,96152.25
2022-10-21T02:42:58.062Z,96142.41
2022-10-21T02:45:27.775Z,96140.16
2022-10-21T02:47:57.745Z,96135.66
2022-10-21T02:50:26.068Z,96133.19
2022-10-21T02:52:54.351Z,96123.38
2022-10-21T02:55:22.717Z,96118.44
2022-10-21T02:57:51.240Z,96111.44
2022-10-21T03:00:19.678Z,96103.88
2022-10-21T03:02:48.014Z,96109.22
2022-10-21T03:05:17.947Z,96107.56
2022-10-21T03:07:46.251Z,96103.25
2022-10-21T03:10:14.616Z,96097.31
2022-10-21T03:12:42.995Z,96107.69
2022-10-21T03:15:12.004Z,96107.28
2022-10-21T03:17:40.799Z,96110.75
2022-10-21T03:20:09.727Z,96100.94
2022-10-21T03:22:39.436Z,96096.63
2022-10-21T03:25:08.903Z,96090.69
2022-10-21T03:27:37.434Z,96092.53
2022-10-21T03:30:07.218Z,96100.50
2022-10-21T03:32:35.735Z,96084.53
2022-10-21T03:35:04.566Z,96091.91
2022-10-21T03:37:32.919Z,96090.25
2022-10-21T03:40:02.586Z,96094.97
2022-10-21T03:42:30.895Z,96092.28
2022-10-21T03:44:59.287Z,96099.28
2022-10-21T03:47:27.612Z,96099.47
2022-10-21T03:49:55.961Z,96104.56
2022-10-21T03:52:25.088Z,96105.16
2022-10-21T03:54:53.443Z,96099.41
2022-10-21T03:57:23.192Z,96091.19
2022-10-21T03:59:51.569Z,96090.81
2022-10-21T04:02:19.932Z,96077.94
2022-10-21T04:04:48.340Z,96085.50
2022-10-21T04:07:16.735Z,96090.41
2022-10-21T04:09:45.124Z,96083.63
2022-10-21T04:12:13.605Z,96082.00
2022-10-21T04:14:43.291Z,96079.53
2022-10-21T04:17:11.673Z,96075.84
2022-10-21T04:19:40.049Z,96075.03
2022-10-21T04:22:08.408Z,96077.31
2022-10-21T04:24:36.733Z,96067.28
2022-10-21T04:27:05.175Z,96059.91
2022-10-21T04:29:33.511Z,96054.59
2022-10-21T04:32:03.197Z,96050.72
2022-10-21T04:34:31.719Z,96050.91
2022-10-21T04:37:02.603Z,96050.91
2022-10-21T04:39:33.710Z,96050.47
2022-10-21T04:42:02.044Z,96033.06
2022-10-21T04:44:30.358Z,96021.59
2022-10-21T04:46:58.648Z,96017.09
2022-10-21T04:49:28.326Z,96024.66
2022-10-21T04:51:56.642Z,96021.38
2022-10-21T04:54:24.931Z,96010.72
2022-10-21T04:56:53.319Z,96002.13
2022-10-21T04:59:21.846Z,95997.19
2022-10-21T05:01:50.260Z,95998.44
2022-10-21T05:04:18.679Z,96000.66
2022-10-21T05:06:48.515Z,96002.06
2022-10-21T05:09:17.169Z,96005.75
2022-10-21T05:11:46.260Z,95998.78
2022-10-21T05:14:15.758Z,95990.81
2022-10-21T05:16:45.990Z,95986.91
2022-10-21T05:19:14.659Z,95976.03
2022-10-21T05:21:43.071Z,95966.84
2022-10-21T05:24:12.772Z,95964.00
2022-10-21T05:26:41.372Z,95980.56
2022-10-21T05:29:09.796Z,95963.97
2022-10-21T05:31:38.224Z,95951.06
2022-10-21T05:34:06.635Z,95959.88
2022-10-21T05:36:35.364Z,95953.09
2022-10-21T05:39:03.763Z,95958.00
2022-10-21T05:41:33.539Z,95956.38
2022-10-21T05:44:01.847Z,95963.09
2022-10-21T05:46:30.178Z,95965.53
2022-10-21T05:48:58.537Z,95954.88
2022-10-21T05:51:28.403Z,95952.22
2022-10-21T05:53:58.242Z,95953.88
2022-10-21T05:56:26.586Z,95954.88
2022-10-21T05:58:56.508Z,95953.88
2022-10-21T06:01:24.912Z,95961.00
2022-10-21T06:03:53.348Z,95961.84
2022-10-21T06:06:21.697Z,95957.78
2022-10-21T06:08:50.188Z,95967.19
2022-10-21T06:11:20.675Z,95956.19
2022-10-21T06:13:49.688Z,95957.59
2022-10-21T06:16:19.451Z,95960.03
2022-10-21T06:18:47.821Z,95983.06
2022-10-21T06:21:16.253Z,95979.78
2022-10-21T06:23:44.668Z,95976.00
2022-10-21T06:26:15.147Z,95967.09
2022-10-21T06:28:45.070Z,95965.19
2022-10-21T06:31:17.794Z,95969.66
2022-10-21T06:33:47.503Z,95975.59
2022-10-21T06:36:16.321Z,95978.06
2022-10-21T06:38:46.242Z,95980.13
2022-10-21T06:41:15.512Z,95975.16
2022-10-21T06:43:44.057Z,95979.44
2022-10-21T06:46:15.209Z,95974.56
2022-10-21T06:48:43.651Z,95961.75
2022-10-21T06:51:17.614Z,95963.22
2022-10-21T06:53:46.427Z,95952.00
2022-10-21T06:56:17.452Z,95957.97
2022-10-21T06:58:48.107Z,95958.84
2022-10-21T07:01:33.908Z,95961.69
2022-10-21T07:04:07.189Z,95955.31
2022-10-21T07:06:37.657Z,95950.81
2022-10-21T07:09:07.469Z,95941.84
2022-10-21T07:11:35.924Z,95948.03
2022-10-21T07:14:05.034Z,95939.84
2022-10-21T07:16:37.008Z,95932.06
2022-10-21T07:19:06.226Z,95934.53
2022-10-21T07:21:36.043Z,95942.31
2022-10-21T07:24:04.476Z,95928.03
2022-10-21T07:26:34.773Z,95928.88
2022-10-21T07:29:03.307Z,95918.22
2022-10-21T07:31:35.853Z,95920.31
2022-10-21T07:34:06.299Z,95921.13
2022-10-21T07:36:38.684Z,95919.47
2022-10-21T07:39:12.047Z,95914.56
2022-10-21T07:41:42.956Z,95912.75
2022-10-21T07:44:11.568Z,95914.63
2022-10-21T07:46:41.411Z,95900.91
2022-10-21T07:49:10.958Z,95900.91
2022-10-21T07:51:41.075Z,95892.06
2022-10-21T07:54:10.246Z,95889.81
2022-10-21T07:56:41.617Z,95880.63
2022-10-21T07:59:13.092Z,95877.97
2022-10-21T08:01:44.617Z,95871.59
2022-10-21T08:04:15.426Z,95879.59
2022-10-21T08:06:46.135Z,95867.91
2022-10-21T08:09:14.677Z,95868.72
2022-10-21T08:11:43.170Z,95861.34
2022-10-21T08:14:11.647Z,95861.75
2022-10-21T08:16:40.057Z,95865.66
2022-10-21T08:19:11.457Z,95863.38
2022-10-21T08:21:39.773Z,95869.94
2022-10-21T08:24:10.536Z,95872.41
2022-10-21T08:26:39.300Z,95882.00
2022-10-21T08:29:09.021Z,95876.47
2022-10-21T08:31:40.063Z,95872.81
2022-10-21T08:34:09.772Z,95865.41
2022-10-21T08:36:39.734Z,95846.53
2022-10-21T08:39:11.079Z,95845.31
2022-10-21T08:41:59.082Z,95847.34
2022-10-21T08:44:40.980Z,95849.00
2022-10-21T08:47:18.649Z,95851.44
2022-10-21T08:49:55.083Z,95858.19
2022-10-21T08:52:26.919Z,95854.91
2022-10-21T08:55:00.398Z,95857.97
2022-10-21T08:57:29.560Z,95858.78
2022-10-21T08:59:58.068Z,95857.75
2022-10-21T09:02:59.922Z,95849.56
2022-10-21T09:05:52.022Z,95844.84
2022-10-21T09:08:27.965Z,95852.59
2022-10-21T09:11:11.749Z,95848.91
2022-10-21T09:13:57.533Z,95854.44
2022-10-21T09:16:34.053Z,95854.59
2022-10-21T09:19:12.816Z,95857.06
2022-10-21T09:22:22.523Z,95859.09
2022-10-21T09:24:59.342Z,95860.94
2022-10-21T09:27:32.381Z,95866.88
2022-10-21T09:30:16.953Z,95868.06
2022-10-21T09:32:49.914Z,95875.63
2022-10-21T09:35:25.100Z,95881.19
2022-10-21T09:37:57.619Z,95877.88
2022-10-21T09:40:28.419Z,95872.72
2022-10-21T09:43:01.378Z,95864.91
2022-10-21T09:45:35.673Z,95869.59
2022-10-21T09:48:07.116Z,95880.47
2022-10-21T09:50:36.007Z,95880.00
2022-10-21T09:53:09.255Z,95876.47
2022-10-21T09:55:40.509Z,95887.09
2022-10-21T09:58:25.860Z,95890.00
2022-10-21T10:00:54.812Z,95892.03
2022-10-21T10:03:32.896Z,95893.69
2022-10-21T10:06:02.490Z,95903.94
2022-10-21T10:08:37.167Z,95888.06
2022-10-21T10:11:14.017Z,95912.28
2022-10-21T10:13:45.601Z,95923.78
2022-10-21T10:16:17.837Z,95923.78
2022-10-21T10:18:47.367Z,95930.16
2022-10-21T10:21:17.922Z,95922.97
2022-10-21T10:23:49.193Z,95927.03
2022-10-21T10:26:30.891Z,95938.91
2022-10-21T10:29:21.844Z,95949.84
2022-10-21T10:31:54.195Z,95969.16
2022-10-21T10:34:25.283Z,96015.78
2022-10-21T10:37:02.498Z,96004.72
2022-10-21T10:39:34.074Z,96000.59
2022-10-21T10:42:04.348Z,96004.47
2022-10-21T10:44:38.960Z,95998.50
2022-10-21T10:47:09.648Z,96008.13
2022-10-21T10:49:43.590Z,96021.00
2022-10-21T10:52:21.368Z,96012.13
2022-10-21T10:54:50.609Z,96016.19
2022-10-21T10:57:29.951Z,96028.88
2022-10-21T11:00:17.867Z,96049.44
2022-10-21T11:02:55.936Z,96049.22
2022-10-21T11:05:28.927Z,96056.41
2022-10-21T11:08:00.553Z,96045.13
2022-10-21T11:10:36.054Z,96043.28
2022-10-21T11:13:10.200Z,96043.47
2022-10-21T11:15:56.473Z,96040.81
2022-10-21T11:18:34.652Z,96037.13
2022-10-21T11:21:11.015Z,96045.94
2022-10-21T11:24:06.305Z,96047.34
2022-10-21T11:26:44.923Z,96055.94
2022-10-21T11:29:27.082Z,96044.31
2022-10-21T11:32:11.543Z,96046.91
2022-10-21T11:34:54.188Z,96037.50
2022-10-21T11:37:34.193Z,96051.38
2022-10-21T11:40:16.872Z,96048.56
2022-10-21T11:42:48.156Z,96059.38
2022-10-21T11:45:37.683Z,96069.81
2022-10-21T11:48:18.098Z,96077.78
2022-10-21T11:50:56.679Z,96091.09
2022-10-21T11:53:41.172Z,96105.63
2022-10-21T11:56:20.198Z,96095.19
2022-10-21T11:59:01.944Z,96109.78
2022-10-21T12:01:42.062Z,96101.75
2022-10-21T12:04:22.260Z,96104.41
2022-10-21T12:06:59.628Z,96111.44
2022-10-21T12:09:31.808Z,96111.22
2022-10-21T12:12:06.602Z,96108.28
2022-10-21T12:14:38.740Z,96113.00
2022-10-21T12:17:10.183Z,96110.69
2022-10-21T12:19:39.912Z,96112.91
2022-10-21T12:22:11.320Z,96116.75
2022-10-21T12:24:49.660Z,96113.66
2022-10-21T12:27:28.020Z,96120.78
2022-10-21T12:30:13.864Z,96098.81
2022-10-21T12:32:48.900Z,96110.88
2022-10-21T12:35:29.022Z,96113.03
2022-10-21T12:38:22.327Z,96115.41
2022-10-21T12:40:51.946Z,96112.28
2022-10-21T12:43:23.857Z,96111.81
2022-10-21T12:46:08.247Z,96104.59
2022-10-21T12:48:40.479Z,96098.19
2022-10-21T12:51:21.209Z,96105.31
2022-10-21T12:53:53.854Z,96093.91
2022-10-21T12:56:32.839Z,96103.13
2022-10-21T12:59:04.475Z,96106.19
2022-10-21T13:01:43.456Z,96111.66
2022-10-21T13:04:49.536Z,96117.41
2022-10-21T13:07:36.480Z,96128.47
2022-10-21T13:10:27.528Z,96131.53
2022-10-21T13:13:29.487Z,96124.88
2022-10-21T13:15:58.003Z,96125.25
2022-10-21T13:19:01.287Z,96113.22
2022-10-21T13:21:40.169Z,96122.47
2022-10-21T13:24:33.736Z,96121.19
2022-10-21T13:27:08.043Z,96123.88
2022-10-21T13:29:48.027Z,96114.16
2022-10-21T13:32:28.614Z,96111.25
2022-10-21T13:35:23.515Z,96107.28
2022-10-21T13:37:57.357Z,96117.00
2022-10-21T13:40:32.282Z,96109.97
2022-10-21T13:43:03.578Z,96113.13
2022-10-21T13:45:36.061Z,96119.78
2022-10-21T13:48:07.660Z,96121.84
2022-10-21T13:50:40.332Z,96125.59
2022-10-21T13:53:30.404Z,96126.31
2022-10-21T13:56:02.270Z,96132.13
2022-10-21T13:58:36.022Z,96124.28
2022-10-21T14:01:16.843Z,96126.97
2022-10-21T14:03:45.717Z,96132.13
2022-10-21T14:06:23.065Z,96132.72
2022-10-21T14:08:51.929Z,96127.13
2022-10-21T14:11:27.342Z,96136.19
2022-10-21T14:13:58.914Z,96133.75
2022-10-21T14:16:33.531Z,96137.47
2022-10-21T14:19:03.635Z,96141.19
2022-10-21T14:21:37.437Z,96142.47
2022-10-21T14:24:24.689Z,96143.78
2022-10-21T14:26:55.153Z,96143.41
2022-10-21T14:29:27.071Z,96143.84
2022-10-21T14:31:57.853Z,96141.41
2022-10-21T14:34:28.408Z,96135.22
2022-10-21T14:37:09.282Z,96128.44
2022-10-21T14:39:40.836Z,96129.47
2022-10-21T14:42:16.095Z,96120.03
2022-10-21T14:44:47.620Z,96127.50
2022-10-21T14:47:20.021Z,96128.56
2022-10-21T14:49:50.140Z,96133.31
2022-10-21T14:52:21.815Z,96134.81
2022-10-21T14:54:55.594Z,96121.88
2022-10-21T14:57:38.876Z,96116.94
2022-10-21T15:00:20.593Z,96119.03
2022-10-21T15:02:50.141Z,96106.13
2022-10-21T15:05:36.028Z,96105.50
2022-10-21T15:08:32.108Z,96112.94
2022-10-21T15:11:24.968Z,96103.50
2022-10-21T15:14:21.836Z,96103.13
2022-10-21T15:16:54.238Z,96103.56
2022-10-21T15:19:25.497Z,96101.94
2022-10-21T15:21:58.135Z,96104.00
2022-10-21T15:24:43.317Z,96108.78
2022-10-21T15:27:18.912Z,96110.06
2022-10-21T15:29:52.073Z,96101.44
2022-10-21T15:32:25.598Z,96112.00
2022-10-21T15:34:56.604Z,96117.00
2022-10-21T15:37:25.037Z,96120.72
2022-10-21T15:39:53.340Z,96125.72
2022-10-21T15:42:21.684Z,96129.03
2022-10-21T15:44:52.055Z,96117.94
2022-10-21T15:47:20.769Z,96116.75
2022-10-21T15:49:49.372Z,96118.03
2022-10-21T15:52:18.368Z,96119.31
2022-10-21T15:54:46.730Z,96121.41
2022-10-21T15:57:18.380Z,96128.00
2022-10-21T15:59:47.267Z,96119.38
2022-10-21T16:02:18.224Z,96122.53
2022-10-21T16:04:46.797Z,96128.09
2022-10-21T16:07:20.098Z,96125.03
2022-10-21T16:09:48.842Z,96122.78
2022-10-21T16:12:20.469Z,96119.16
2022-10-21T16:14:49.125Z,96113.22
2022-10-21T16:17:19.779Z,96108.50
2022-10-21T16:19:48.202Z,96124.19
2022-10-21T16:22:22.404Z,96125.47
2022-10-21T16:24:50.756Z,96121.59
2022-10-21T16:27:30.935Z,96130.22
2022-10-21T16:30:16.454Z,96123.22
2022-10-21T16:32:46.472Z,96132.28
2022-10-21T16:35:16.892Z,96127.97
2022-10-21T16:37:46.047Z,96132.94
2022-10-21T16:40:18.539Z,96127.84
2022-10-21T16:42:47.341Z,96128.03
2022-10-21T16:45:15.965Z,96132.81
2022-10-21T16:47:51.148Z,96131.38
2022-10-21T16:50:22.489Z,96127.25
2022-10-21T16:52:51.357Z,96134.09
2022-10-21T16:55:19.842Z,96137.63
2022-10-21T16:57:48.412Z,96146.31
2022-10-21T17:00:17.992Z,96136.06
2022-10-21T17:02:49.957Z,96137.31
2022-10-21T17:05:19.016Z,96137.31
2022-10-21T17:07:47.389Z,96152.53
2022-10-21T17:10:15.823Z,96144.56
2022-10-21T17:12:44.554Z,96146.69
2022-10-21T17:15:16.669Z,96150.81
2022-10-21T17:17:45.232Z,96145.31
2022-10-21T17:20:15.022Z,96148.00
2022-10-21T17:22:43.685Z,96156.84
2022-10-21T17:25:13.135Z,96154.75
2022-10-21T17:27:41.829Z,96151.03
2022-10-21T17:30:12.228Z,96147.75
2022-10-21T17:35:19.599Z,96162.38
2022-10-21T17:37:48.183Z,96157.03
2022-10-21T17:40:18.480Z,96158.09
2022-10-21T17:42:47.275Z,96160.75
2022-10-21T17:45:17.061Z,96151.91
2022-10-21T17:47:45.719Z,96143.06
2022-10-21T17:50:18.451Z,96147.59
2022-10-21T17:52:46.824Z,96144.09
2022-10-21T17:55:15.130Z,96155.63
2022-10-21T17:57:43.535Z,96148.41
2022-10-21T18:00:13.011Z,96142.47
2022-10-21T18:02:41.884Z,96151.50
2022-10-21T18:05:10.981Z,96156.03
2022-10-21T18:07:40.957Z,96147.44
2022-10-21T18:10:10.529Z,96155.44
2022-10-21T18:12:39.686Z,96154.63
2022-10-21T18:15:08.744Z,96152.16
2022-10-21T18:17:39.885Z,96156.72
2022-10-21T18:20:09.985Z,96144.97
2022-10-21T18:22:40.431Z,96145.81
2022-10-21T18:25:10.988Z,96150.75
2022-10-21T18:27:40.226Z,96149.56
2022-10-21T18:30:10.096Z,96145.03
2022-10-21T18:32:39.079Z,96152.44
2022-10-21T18:35:09.112Z,96152.69
2022-10-21T18:37:38.003Z,96136.66
2022-10-21T18:40:08.121Z,96141.16
2022-10-21T18:42:38.155Z,96143.84
2022-10-21T18:45:07.668Z,96139.75
2022-10-21T18:47:40.708Z,96130.72
2022-10-21T18:50:11.015Z,96116.09
2022-10-21T18:52:39.360Z,96112.19
2022-10-21T18:55:08.364Z,96113.81
2022-10-21T18:57:38.430Z,96110.34
2022-10-21T19:00:08.846Z,96115.91
2022-10-21T19:02:37.257Z,96111.59
2022-10-21T19:05:06.398Z,96112.41
2022-10-21T19:07:34.968Z,96111.34
2022-10-21T19:10:03.392Z,96112.00
2022-10-21T19:12:31.783Z,96098.63
2022-10-21T19:15:01.493Z,96096.97
2022-10-21T19:17:29.948Z,96098.63
2022-10-21T19:19:59.623Z,96097.78
2022-10-21T19:22:28.110Z,96102.53
2022-10-21T19:24:56.840Z,96104.59
2022-10-21T19:27:25.174Z,96105.66
2022-10-21T19:29:55.097Z,96109.94
2022-10-21T19:32:24.857Z,96111.81
2022-10-21T19:34:53.212Z,96119.00
2022-10-21T19:37:21.561Z,96132.38
2022-10-21T19:39:50.536Z,96134.25
2022-10-21T19:42:18.863Z,96144.16
2022-10-21T19:44:49.996Z,96146.84
2022-10-21T19:47:18.351Z,96154.47
2022-10-21T19:49:51.354Z,96151.19
2022-10-21T19:52:19.747Z,96147.91
2022-10-21T19:54:52.542Z,96146.31
2022-10-21T19:57:21.053Z,96145.69
2022-10-21T19:59:49.449Z,96138.53
2022-10-21T20:02:17.936Z,96138.91
2022-10-21T20:04:46.348Z,96143.63
2022-10-21T20:07:16.104Z,96135.16
2022-10-21T20:09:44.517Z,96148.91
2022-10-21T20:12:12.965Z,96141.97
2022-10-21T20:14:41.308Z,96149.38
2022-10-21T20:17:09.985Z,96137.47
2022-10-21T20:19:38.340Z,96146.53
2022-10-21T20:22:06.735Z,96127.63
2022-10-21T20:24:36.399Z,96132.38
2022-10-21T20:27:04.916Z,96140.59
2022-10-21T20:29:33.425Z,96136.91
2022-10-21T20:32:02.018Z,96128.66
2022-10-21T20:34:33.956Z,96127.84
2022-10-21T20:37:05.125Z,96123.94
2022-10-21T20:39:33.573Z,96126.19
2022-10-21T20:42:03.426Z,96123.31
2022-10-21T20:44:31.756Z,96123.31
2022-10-21T20:47:00.153Z,96109.97
2022-10-21T20:49:28.469Z,96100.88
2022-10-21T20:51:56.865Z,96089.19
2022-10-21T20:54:25.985Z,96092.69
2022-10-21T20:56:54.476Z,96085.72
2022-10-21T20:59:24.875Z,96075.84
2022-10-21T21:01:53.304Z,96073.97
2022-10-21T21:04:23.612Z,96067.81
2022-10-21T21:06:52.603Z,96059.81
2022-10-21T21:09:38.108Z,96055.28
2022-10-21T21:12:11.243Z,96051.00
2022-10-21T21:14:41.066Z,96041.78
2022-10-21T21:17:09.392Z,96043.44
2022-10-21T21:19:39.204Z,96037.25
2022-10-21T21:22:07.903Z,96032.75
2022-10-21T21:24:36.256Z,96029.03
2022-10-21T21:27:04.681Z,96023.09
2022-10-21T21:29:33.072Z,96013.88
2022-10-21T21:32:03.068Z,96007.94
2022-10-21T21:34:31.699Z,96004.44
2022-10-21T21:37:00.546Z,96003.59
2022-10-21T21:39:28.990Z,96001.97
2022-10-21T21:41:57.449Z,95991.31
2022-10-21T21:44:25.759Z,95988.84
2022-10-21T21:46:54.091Z,95981.03
2022-10-21T21:49:23.953Z,95980.22
2022-10-21T21:51:52.477Z,95986.38
2022-10-21T21:54:20.812Z,95990.09
2022-10-21T21:56:52.030Z,95980.22
2022-10-21T21:59:24.591Z,95971.19
2022-10-21T22:01:53.175Z,95976.53
2022-10-21T22:04:22.859Z,95981.25
2022-10-21T22:06:51.211Z,95986.81
2022-10-21T22:09:19.800Z,95981.47
2022-10-21T22:11:48.648Z,95986.81
2022-10-21T22:14:17.134Z,95985.16
2022-10-21T22:16:48.432Z,95988.25
2022-10-21T22:19:16.746Z,96002.41
2022-10-21T22:21:46.424Z,96002.59
2022-10-21T22:24:14.847Z,96010.47
2022-10-21T22:26:43.185Z,96005.97
2022-10-21T22:29:11.503Z,96004.97
2022-10-21T22:31:39.906Z,95999.03
2022-10-21T22:34:11.091Z,95991.84
2022-10-21T22:36:40.708Z,96003.97
2022-10-21T22:39:12.284Z,95995.19
2022-10-21T22:41:40.881Z,96002.81
2022-10-21T22:44:12.132Z,96003.81
2022-10-21T22:46:40.576Z,96003.81
2022-10-21T22:49:09.132Z,95999.31
2022-10-21T22:51:38.858Z,95999.50
2022-10-21T22:54:15.068Z,95994.75
2022-10-21T22:56:49.179Z,95988.19
2022-10-21T22:59:17.499Z,95987.34
2022-10-21T23:01:45.811Z,95992.94
2022-10-21T23:04:14.164Z,95993.94
2022-10-21T23:06:42.461Z,95995.81
2022-10-21T23:09:10.962Z,96003.81
2022-10-21T23:11:39.331Z,95989.00
2022-10-21T23:14:09.873Z,95975.03
2022-10-21T23:16:38.399Z,95978.28
2022-10-21T23:19:07.231Z,95971.53
2022-10-21T23:21:36.468Z,95977.09
2022-10-21T23:24:06.380Z,95982.41
2022-10-21T23:26:35.657Z,95975.81
2022-10-21T23:29:04.909Z,95981.81
2022-10-21T23:31:34.622Z,95987.13
2022-10-21T23:34:05.857Z,95986.50
2022-10-21T23:36:35.511Z,95990.63
2022-10-21T23:39:04.541Z,95985.44
2022-10-21T23:41:32.952Z,95985.44
2022-10-21T23:44:01.287Z,95983.63
2022-10-21T23:46:29.619Z,95978.69
2022-10-21T23:48:59.387Z,95980.16
2022-10-21T23:51:28.028Z,95986.75
2022-10-21T23:53:56.569Z,95988.56
2022-10-21T23:56:24.899Z,95990.44
2022-10-21T23:58:53.199Z,95987.16
